Terminal Aerodrome Forecast
Issued by NWS

Current Version | Previous Version | Graphics & Text | Print | Product List | Glossary On
Versions: 1 2 3 4 5 6 7 8 9 10 11 12 13 14 15 16 17 18 19 20 21 22 23 24
192
FTUS41 KPBZ 101125 CCA
TAFHLG
TAF COR
KHLG 101125Z 1011/1112 27013G24KT P6SM VCSH BKN015 OVC040
     FM101900 26010G20KT 1 1/2SM -SHSN OVC012
     FM110100 27010G19KT 4SM -SHSN OVC012=

USA.gov is the U.S. government's official web portal to all federal, state and local government web resources and services.